createdAt,value
2024-02-04T00:00:39.638Z,0.90
2024-02-04T00:03:07.780Z,1.20
2024-02-04T00:05:37.776Z,1.20
2024-02-04T00:08:06.420Z,1.10
2024-02-04T00:10:36.945Z,1.35
2024-02-04T00:13:05.317Z,1.10
2024-02-04T00:15:33.329Z,1.27
2024-02-04T00:18:01.286Z,0.90
2024-02-04T00:20:30.815Z,0.68
2024-02-04T00:22:58.773Z,0.98
2024-02-04T00:25:26.823Z,0.90
2024-02-04T00:27:56.185Z,0.68
2024-02-04T00:30:24.260Z,0.98
2024-02-04T00:32:52.307Z,0.95
2024-02-04T00:35:20.528Z,0.85
2024-02-04T00:37:48.958Z,0.88
2024-02-04T00:40:17.027Z,0.90
2024-02-04T00:42:45.076Z,1.33
2024-02-04T00:45:14.642Z,1.00
2024-02-04T00:47:42.601Z,1.48
2024-02-04T00:50:11.496Z,1.27
2024-02-04T00:52:41.228Z,1.17
2024-02-04T00:55:10.007Z,0.98
2024-02-04T00:57:38.050Z,1.27
2024-02-04T01:00:06.907Z,1.10
2024-02-04T01:02:36.289Z,1.17
2024-02-04T01:05:04.524Z,1.33
2024-02-04T01:07:33.984Z,1.40
2024-02-04T01:10:02.805Z,1.58
2024-02-04T01:12:32.013Z,1.42
2024-02-04T01:15:00.015Z,1.35
2024-02-04T01:17:28.138Z,1.30
2024-02-04T01:19:57.601Z,1.20
2024-02-04T01:22:28.097Z,0.95
2024-02-04T01:24:56.148Z,1.05
2024-02-04T01:27:24.104Z,1.27
2024-02-04T01:29:52.101Z,1.45
2024-02-04T01:32:20.458Z,1.17
2024-02-04T01:34:48.819Z,1.42
2024-02-04T01:37:18.710Z,1.55
2024-02-04T01:39:46.739Z,1.10
2024-02-04T01:42:14.836Z,0.90
2024-02-04T01:44:43.149Z,1.13
2024-02-04T01:47:11.489Z,0.70
2024-02-04T01:49:40.293Z,1.20
2024-02-04T01:52:10.416Z,1.00
2024-02-04T01:54:42.041Z,0.93
2024-02-04T01:57:12.618Z,0.73
2024-02-04T01:59:41.369Z,1.20
2024-02-04T02:02:09.735Z,1.02
2024-02-04T02:04:37.763Z,1.10
2024-02-04T02:07:09.141Z,0.82
2024-02-04T02:09:37.265Z,0.80
2024-02-04T02:12:12.560Z,1.00
2024-02-04T02:14:44.466Z,0.93
2024-02-04T02:17:19.073Z,0.85
2024-02-04T02:19:53.813Z,1.02
2024-02-04T02:22:31.014Z,1.05
2024-02-04T02:25:01.813Z,0.55
2024-02-04T02:27:30.158Z,0.95
2024-02-04T02:29:58.204Z,0.90
2024-02-04T02:32:26.696Z,0.70
2024-02-04T02:34:54.781Z,0.70
2024-02-04T02:37:32.842Z,0.82
2024-02-04T02:40:06.575Z,0.90
2024-02-04T02:42:35.706Z,0.75
2024-02-04T02:45:04.147Z,0.90
2024-02-04T02:47:33.961Z,0.85
2024-02-04T02:50:03.278Z,0.85
2024-02-04T02:52:31.259Z,0.90
2024-02-04T02:54:59.238Z,0.93
2024-02-04T02:57:28.625Z,0.93
2024-02-04T02:59:56.559Z,1.10
2024-02-04T03:02:24.883Z,0.95
2024-02-04T03:04:53.008Z,0.65
2024-02-04T03:07:20.986Z,0.75
2024-02-04T03:09:49.006Z,0.82
2024-02-04T03:12:17.004Z,1.02
2024-02-04T03:14:46.363Z,0.85
2024-02-04T03:17:14.543Z,0.63
2024-02-04T03:19:42.596Z,0.75
2024-02-04T03:22:10.705Z,0.90
2024-02-04T03:24:38.757Z,1.00
2024-02-04T03:27:06.769Z,1.05
2024-02-04T03:29:34.764Z,0.50
2024-02-04T03:32:04.385Z,0.90
2024-02-04T03:34:32.786Z,0.63
2024-02-04T03:37:00.936Z,0.82
2024-02-04T03:39:28.958Z,1.30
2024-02-04T03:41:56.925Z,1.30
2024-02-04T03:44:24.941Z,0.45
2024-02-04T03:46:53.047Z,0.77
2024-02-04T03:49:22.995Z,0.73
2024-02-04T03:51:51.256Z,1.10
2024-02-04T03:54:20.318Z,1.02
2024-02-04T03:56:48.426Z,1.17
2024-02-04T03:59:16.347Z,0.85
2024-02-04T04:01:59.350Z,1.00
2024-02-04T04:04:29.319Z,1.08
2024-02-04T04:06:57.502Z,0.90
2024-02-04T04:09:25.644Z,0.80
2024-02-04T04:11:53.658Z,0.80
2024-02-04T04:14:21.564Z,0.80
2024-02-04T04:16:49.451Z,1.02
2024-02-04T04:19:17.404Z,0.73
2024-02-04T04:21:46.795Z,0.98
2024-02-04T04:24:16.859Z,0.95
2024-02-04T04:26:44.768Z,0.85
2024-02-04T04:29:12.660Z,0.60
2024-02-04T04:31:40.723Z,0.70
2024-02-04T04:34:08.867Z,0.70
2024-02-04T04:36:37.238Z,0.80
2024-02-04T04:39:06.529Z,0.68
2024-02-04T04:41:34.398Z,0.68
2024-02-04T04:44:02.275Z,0.57
2024-02-04T04:46:30.207Z,0.75
2024-02-04T04:48:59.486Z,0.77
2024-02-04T04:51:28.699Z,0.82
2024-02-04T04:53:56.559Z,0.80
2024-02-04T04:56:25.788Z,0.82
2024-02-04T04:58:53.778Z,0.70
2024-02-04T05:01:21.798Z,0.82
2024-02-04T05:03:49.821Z,1.02
2024-02-04T05:06:17.821Z,1.00
2024-02-04T05:08:45.707Z,0.77
2024-02-04T05:11:13.629Z,1.00
2024-02-04T05:13:42.883Z,0.70
2024-02-04T05:16:10.859Z,1.27
2024-02-04T05:18:38.915Z,1.00
2024-02-04T05:21:07.227Z,1.02
2024-02-04T05:23:35.176Z,0.95
2024-02-04T05:26:05.620Z,1.27
2024-02-04T05:28:33.562Z,1.20
2024-02-04T05:31:04.347Z,0.90
2024-02-04T05:33:32.581Z,1.15
2024-02-04T05:36:00.565Z,1.05
2024-02-04T05:38:28.514Z,1.23
2024-02-04T05:40:56.603Z,1.27
2024-02-04T05:43:24.668Z,0.90
2024-02-04T05:45:52.682Z,1.17
2024-02-04T05:48:22.293Z,1.00
2024-02-04T05:50:50.377Z,1.10
2024-02-04T05:53:18.280Z,0.77
2024-02-04T05:55:46.261Z,0.90
2024-02-04T05:58:15.105Z,0.57
2024-02-04T06:00:43.133Z,1.45
2024-02-04T06:03:11.123Z,0.70
2024-02-04T06:05:40.558Z,1.15
2024-02-04T06:08:08.730Z,1.02
2024-02-04T06:10:36.639Z,1.08
2024-02-04T06:13:04.875Z,0.82
2024-02-04T06:15:32.850Z,0.68
2024-02-04T06:18:00.777Z,1.10
2024-02-04T06:20:28.788Z,0.70
2024-02-04T06:22:59.050Z,0.80
2024-02-04T06:25:27.068Z,0.95
2024-02-04T06:27:55.014Z,0.77
2024-02-04T06:30:23.020Z,0.88
2024-02-04T06:32:51.537Z,0.90
2024-02-04T06:35:19.441Z,0.77
2024-02-04T06:38:02.072Z,0.90
2024-02-04T06:40:30.179Z,0.65
2024-02-04T06:42:58.099Z,0.80
2024-02-04T06:45:26.041Z,0.50
2024-02-04T06:47:54.034Z,1.00
2024-02-04T06:50:22.052Z,0.82
2024-02-04T06:52:49.958Z,0.93
2024-02-04T06:55:19.353Z,1.00
2024-02-04T06:57:47.541Z,0.47
2024-02-04T07:00:16.791Z,0.95
2024-02-04T07:02:45.072Z,0.65
2024-02-04T07:05:13.047Z,0.70
2024-02-04T07:07:40.978Z,1.17
2024-02-04T07:10:09.648Z,0.85
2024-02-04T07:12:39.153Z,0.68
2024-02-04T07:15:07.693Z,0.93
2024-02-04T07:17:35.887Z,0.65
2024-02-04T07:20:04.056Z,0.80
2024-02-04T07:22:34.174Z,0.60
2024-02-04T07:25:04.902Z,0.90
2024-02-04T07:27:33.148Z,0.80
2024-02-04T07:30:02.430Z,1.10
2024-02-04T07:32:30.595Z,0.80
2024-02-04T07:34:58.612Z,0.85
2024-02-04T07:37:26.664Z,0.80
2024-02-04T07:39:54.646Z,0.52
2024-02-04T07:42:22.628Z,0.50
2024-02-04T07:44:50.608Z,0.88
2024-02-04T07:47:20.748Z,0.38
2024-02-04T07:49:48.991Z,0.70
2024-02-04T07:52:16.968Z,0.40
2024-02-04T07:54:45.312Z,0.75
2024-02-04T07:57:13.231Z,0.60
2024-02-04T07:59:41.102Z,0.50
2024-02-04T08:02:09.057Z,0.85
2024-02-04T08:04:38.429Z,0.45
2024-02-04T08:07:06.603Z,0.47
2024-02-04T08:09:35.418Z,0.63
2024-02-04T08:12:04.711Z,0.50
2024-02-04T08:14:32.685Z,0.50
2024-02-04T08:17:00.664Z,0.60
2024-02-04T08:19:28.599Z,0.70
2024-02-04T08:21:57.945Z,0.30
2024-02-04T08:24:25.931Z,0.57
2024-02-04T08:26:54.150Z,0.47
2024-02-04T08:29:22.164Z,0.80
2024-02-04T08:31:50.083Z,0.47
2024-02-04T08:34:18.086Z,0.52
2024-02-04T08:36:46.140Z,0.75
2024-02-04T08:39:15.561Z,0.38
2024-02-04T08:41:43.910Z,0.60
2024-02-04T08:44:16.096Z,0.70
2024-02-04T08:46:50.448Z,0.50
2024-02-04T08:49:18.508Z,0.52
2024-02-04T08:51:46.705Z,0.43
2024-02-04T08:54:16.030Z,0.57
2024-02-04T08:56:43.881Z,0.88
2024-02-04T08:59:11.832Z,0.40
2024-02-04T09:01:39.877Z,0.45
2024-02-04T09:04:07.931Z,0.47
2024-02-04T09:06:35.953Z,0.80
2024-02-04T09:09:03.964Z,0.55
2024-02-04T09:11:33.665Z,0.50
2024-02-04T09:14:01.648Z,0.82
2024-02-04T09:16:30.902Z,0.50
2024-02-04T09:18:58.940Z,0.40
2024-02-04T09:21:27.340Z,0.57
2024-02-04T09:23:55.544Z,0.40
2024-02-04T09:26:23.385Z,0.73
2024-02-04T09:28:52.680Z,0.98
2024-02-04T09:31:20.984Z,0.70
2024-02-04T09:33:49.189Z,0.32
2024-02-04T09:36:17.572Z,0.40
2024-02-04T09:38:45.777Z,0.43
2024-02-04T09:41:13.968Z,0.60
2024-02-04T09:43:43.008Z,0.40
2024-02-04T09:46:12.884Z,0.52
2024-02-04T09:48:42.756Z,0.65
2024-02-04T09:51:11.080Z,0.22
2024-02-04T09:53:45.138Z,0.70
2024-02-04T09:56:15.870Z,0.32
2024-02-04T09:58:45.271Z,0.43
2024-02-04T10:01:17.088Z,0.30
2024-02-04T10:03:44.240Z,0.50
2024-02-04T10:06:12.703Z,0.30
2024-02-04T10:08:41.400Z,0.22
2024-02-04T10:11:09.510Z,0.38
2024-02-04T10:13:46.007Z,0.40
2024-02-04T10:16:15.961Z,0.38
2024-02-04T10:18:44.960Z,0.52
2024-02-04T10:21:20.681Z,0.57
2024-02-04T10:23:48.780Z,0.30
2024-02-04T10:26:17.512Z,0.30
2024-02-04T10:28:48.653Z,0.40
2024-02-04T10:31:18.200Z,0.25
2024-02-04T10:33:46.710Z,0.55
2024-02-04T10:36:14.790Z,0.70
2024-02-04T10:38:42.776Z,0.75
2024-02-04T10:41:16.541Z,0.52
2024-02-04T10:43:45.999Z,0.40
2024-02-04T10:46:16.260Z,0.40
2024-02-04T10:48:48.171Z,0.22
2024-02-04T10:51:18.332Z,0.50
2024-02-04T10:53:47.988Z,0.40
2024-02-04T10:56:22.287Z,0.20
2024-02-04T10:58:51.280Z,0.50
2024-02-04T11:01:20.092Z,0.35
2024-02-04T11:03:50.366Z,0.40
2024-02-04T11:06:18.927Z,0.20
2024-02-04T11:08:46.885Z,0.30
2024-02-04T11:11:15.003Z,0.20
2024-02-04T11:13:47.030Z,0.40
2024-02-04T11:16:24.093Z,0.20
2024-02-04T11:19:06.988Z,0.20
2024-02-04T11:22:04.370Z,0.30
2024-02-04T11:24:54.934Z,0.20
2024-02-04T11:27:23.536Z,0.20
2024-02-04T11:29:51.741Z,0.22
2024-02-04T11:32:20.099Z,0.25
2024-02-04T11:34:49.915Z,0.40
2024-02-04T11:37:20.468Z,0.22
2024-02-04T11:39:53.346Z,0.10
2024-02-04T11:42:22.440Z,0.20
2024-02-04T11:44:51.006Z,0.20
2024-02-04T11:47:25.606Z,0.00
2024-02-04T11:49:58.499Z,0.10
2024-02-04T11:52:29.924Z,0.10
2024-02-04T11:54:58.341Z,0.20
2024-02-04T11:57:26.604Z,0.47
2024-02-04T11:59:56.594Z,0.20
2024-02-04T12:02:24.566Z,0.10
2024-02-04T12:04:53.324Z,0.47
2024-02-04T12:07:23.817Z,0.15
2024-02-04T12:09:51.978Z,0.13
2024-02-04T12:12:20.256Z,0.30
2024-02-04T12:14:48.597Z,0.40
2024-02-04T12:17:17.101Z,0.22
2024-02-04T12:19:45.299Z,0.20
2024-02-04T12:22:13.577Z,0.10
2024-02-04T12:24:43.187Z,0.17
2024-02-04T12:27:11.300Z,0.28
2024-02-04T12:29:40.448Z,0.30
2024-02-04T12:32:08.892Z,0.22
2024-02-04T12:34:38.771Z,0.22
2024-02-04T12:37:06.798Z,0.20
2024-02-04T12:39:34.909Z,0.20
2024-02-04T12:42:04.530Z,0.22
2024-02-04T12:44:32.558Z,0.20
2024-02-04T12:47:00.756Z,0.10
2024-02-04T12:49:29.025Z,0.10
2024-02-04T12:52:07.275Z,0.10
2024-02-04T12:54:43.367Z,0.30
2024-02-04T12:57:13.276Z,0.13
2024-02-04T12:59:41.144Z,0.20
2024-02-04T13:02:16.779Z,0.00
2024-02-04T13:04:44.840Z,0.30
2024-02-04T13:07:15.237Z,0.20
2024-02-04T13:09:43.727Z,0.10
2024-02-04T13:12:16.127Z,0.05
2024-02-04T13:14:45.602Z,0.13
2024-02-04T13:17:13.652Z,0.40
2024-02-04T13:19:42.435Z,0.20
2024-02-04T13:22:11.650Z,0.10
2024-02-04T13:24:40.528Z,0.20
2024-02-04T13:27:09.111Z,0.40
2024-02-04T13:29:38.487Z,0.20
2024-02-04T13:32:07.398Z,0.30
2024-02-04T13:34:35.677Z,0.10
2024-02-04T13:37:03.961Z,0.30
2024-02-04T13:39:32.510Z,0.13
2024-02-04T13:42:00.475Z,0.30
2024-02-04T13:44:28.450Z,0.20
2024-02-04T13:46:57.842Z,0.13
2024-02-04T13:49:25.955Z,0.20
2024-02-04T13:51:54.216Z,0.38
2024-02-04T13:54:22.189Z,0.10
2024-02-04T13:56:50.992Z,0.10
2024-02-04T13:59:19.121Z,0.20
2024-02-04T14:01:47.093Z,0.13
2024-02-04T14:04:16.615Z,0.28
2024-02-04T14:06:44.843Z,0.22
2024-02-04T14:09:13.998Z,0.20
2024-02-04T14:11:42.284Z,0.20
2024-02-04T14:14:10.289Z,0.20
2024-02-04T14:16:38.343Z,0.20
2024-02-04T14:19:06.399Z,0.38
2024-02-04T14:21:35.946Z,0.20
2024-02-04T14:24:04.015Z,0.28
2024-02-04T14:26:32.261Z,0.08
2024-02-04T14:29:00.481Z,0.20
2024-02-04T14:31:28.493Z,0.10
2024-02-04T14:33:57.142Z,0.20
2024-02-04T14:36:25.684Z,0.20
2024-02-04T14:38:54.985Z,0.20
2024-02-04T14:41:23.164Z,0.22
2024-02-04T14:43:51.378Z,0.45
2024-02-04T14:46:19.526Z,0.15
2024-02-04T14:48:48.150Z,0.20
2024-02-04T14:51:16.221Z,0.30
2024-02-04T14:53:44.251Z,0.10
2024-02-04T14:56:13.771Z,0.20
2024-02-04T14:58:43.610Z,0.10
2024-02-04T15:01:11.739Z,0.30
2024-02-04T15:03:39.976Z,0.20
2024-02-04T15:06:08.249Z,0.40
2024-02-04T15:08:36.290Z,0.20
2024-02-04T15:11:04.437Z,0.20
2024-02-04T15:13:34.690Z,0.30
2024-02-04T15:16:03.700Z,0.20
2024-02-04T15:18:33.145Z,0.20
2024-02-04T15:21:01.678Z,0.43
2024-02-04T15:23:30.540Z,0.32
2024-02-04T15:25:59.460Z,0.22
2024-02-04T15:28:27.919Z,0.47
2024-02-04T15:30:58.150Z,0.30
2024-02-04T15:33:30.192Z,0.55
2024-02-04T15:35:58.383Z,0.40
2024-02-04T15:38:26.481Z,0.28
2024-02-04T15:40:54.410Z,0.30
2024-02-04T15:43:23.183Z,0.40
2024-02-04T15:45:51.824Z,0.35
2024-02-04T15:48:23.909Z,0.50
2024-02-04T15:50:52.501Z,0.40
2024-02-04T15:53:20.962Z,0.30
2024-02-04T15:55:49.412Z,0.40
2024-02-04T15:58:17.950Z,0.28
2024-02-04T16:00:46.897Z,0.32
2024-02-04T16:03:17.653Z,0.40
2024-02-04T16:05:47.539Z,0.50
2024-02-04T16:08:16.158Z,0.50
2024-02-04T16:10:46.087Z,0.60
2024-02-04T16:13:14.679Z,0.60
2024-02-04T16:15:47.173Z,0.40
2024-02-04T16:18:16.129Z,0.70
2024-02-04T16:20:44.450Z,0.38
2024-02-04T16:23:13.803Z,0.60
2024-02-04T16:25:42.020Z,0.45
2024-02-04T16:28:10.062Z,0.55
2024-02-04T16:30:38.013Z,0.43
2024-02-04T16:33:06.614Z,0.30
2024-02-04T16:35:35.254Z,0.25
2024-02-04T16:38:03.143Z,0.50
2024-02-04T16:40:32.584Z,0.40
2024-02-04T16:43:00.802Z,0.80
2024-02-04T16:45:30.554Z,0.55
2024-02-04T16:47:59.828Z,0.50
2024-02-04T16:50:28.182Z,0.50
2024-02-04T16:52:56.124Z,0.20
2024-02-04T16:55:24.354Z,0.30
2024-02-04T16:57:53.753Z,0.57
2024-02-04T17:00:21.892Z,0.22
2024-02-04T17:02:51.092Z,0.40
2024-02-04T17:05:20.751Z,0.70
2024-02-04T17:07:49.331Z,0.55
2024-02-04T17:10:18.171Z,0.52
2024-02-04T17:12:47.033Z,0.45
2024-02-04T17:15:17.723Z,0.38
2024-02-04T17:17:54.609Z,0.40
2024-02-04T17:20:31.095Z,0.20
2024-02-04T17:23:02.128Z,0.30
2024-02-04T17:25:33.902Z,0.40
2024-02-04T17:28:05.864Z,0.57
2024-02-04T17:30:36.099Z,0.20
2024-02-04T17:33:06.021Z,0.20
2024-02-04T17:35:34.149Z,0.25
2024-02-04T17:38:05.329Z,0.38
2024-02-04T17:40:34.729Z,0.50
2024-02-04T17:43:03.021Z,0.35
2024-02-04T17:45:31.178Z,0.45
2024-02-04T17:48:00.457Z,0.57
2024-02-04T17:50:34.609Z,0.68
2024-02-04T17:53:02.622Z,0.40
2024-02-04T17:55:31.025Z,0.10
2024-02-04T17:58:01.001Z,0.35
2024-02-04T18:00:29.664Z,0.32
2024-02-04T18:02:58.745Z,0.50
2024-02-04T18:05:28.159Z,0.47
2024-02-04T18:07:56.267Z,0.40
2024-02-04T18:10:24.470Z,0.50
2024-02-04T18:12:52.511Z,0.65
2024-02-04T18:15:20.492Z,0.30
2024-02-04T18:17:49.512Z,0.57
2024-02-04T18:20:17.949Z,0.35
2024-02-04T18:22:47.440Z,0.30
2024-02-04T18:25:15.608Z,0.40
2024-02-04T18:27:44.097Z,0.20
2024-02-04T18:30:17.715Z,0.25
2024-02-04T18:32:45.886Z,0.30
2024-02-04T18:35:14.068Z,0.52
2024-02-04T18:37:42.062Z,0.63
2024-02-04T18:40:12.018Z,0.50
2024-02-04T18:42:40.553Z,0.63
2024-02-04T18:45:09.474Z,0.30
2024-02-04T18:47:37.523Z,0.20
2024-02-04T18:50:06.241Z,0.40
2024-02-04T18:52:34.718Z,0.15
2024-02-04T18:55:02.648Z,0.45
2024-02-04T18:57:32.802Z,0.30
2024-02-04T19:00:00.793Z,0.20
2024-02-04T19:02:28.663Z,0.50
2024-02-04T19:04:56.598Z,0.47
2024-02-04T19:07:25.075Z,0.50
2024-02-04T19:09:53.148Z,0.30
2024-02-04T19:12:21.508Z,0.22
2024-02-04T19:14:50.802Z,0.40
2024-02-04T19:17:19.157Z,0.20
2024-02-04T19:19:47.738Z,0.40
2024-02-04T19:22:15.877Z,0.20
2024-02-04T19:24:43.914Z,0.32
2024-02-04T19:27:13.163Z,0.20
2024-02-04T19:29:42.496Z,0.30
2024-02-04T19:32:12.066Z,0.28
2024-02-04T19:34:40.143Z,0.30
2024-02-04T19:37:09.372Z,0.50
2024-02-04T19:39:37.436Z,0.43
2024-02-04T19:42:05.604Z,0.20
2024-02-04T19:44:33.603Z,0.30
2024-02-04T19:47:01.496Z,0.17
2024-02-04T19:49:31.429Z,0.20
2024-02-04T19:52:01.831Z,0.40
2024-02-04T19:54:29.920Z,0.20
2024-02-04T19:56:57.854Z,0.10
2024-02-04T19:59:25.784Z,0.20
2024-02-04T20:01:53.908Z,0.30
2024-02-04T20:04:22.174Z,0.15
2024-02-04T20:06:51.734Z,0.17
2024-02-04T20:09:19.747Z,0.10
2024-02-04T20:11:47.744Z,0.13
2024-02-04T20:14:15.675Z,0.30
2024-02-04T20:16:43.687Z,0.20
2024-02-04T20:19:11.749Z,0.30
2024-02-04T20:21:39.953Z,0.20
2024-02-04T20:24:09.785Z,0.30
2024-02-04T20:26:38.401Z,0.20
2024-02-04T20:29:06.400Z,0.50
2024-02-04T20:31:35.083Z,0.20
2024-02-04T20:34:09.183Z,0.28
2024-02-04T20:36:38.227Z,0.20
2024-02-04T20:39:07.084Z,0.10
2024-02-04T20:41:36.529Z,0.10
2024-02-04T20:44:04.497Z,0.10
2024-02-04T20:46:41.023Z,0.10
2024-02-04T20:49:09.663Z,0.10
2024-02-04T20:51:38.119Z,0.10
2024-02-04T20:54:07.497Z,0.17
2024-02-04T20:56:37.472Z,0.30
2024-02-04T20:59:05.368Z,0.30
2024-02-04T21:01:33.484Z,0.10
2024-02-04T21:04:01.572Z,0.20
2024-02-04T21:06:32.898Z,0.00
2024-02-04T21:09:00.865Z,0.15
2024-02-04T21:11:29.609Z,0.30
2024-02-04T21:13:59.623Z,0.30
2024-02-04T21:16:28.770Z,0.22
2024-02-04T21:18:56.879Z,0.25
2024-02-04T21:21:24.992Z,0.40
2024-02-04T21:23:53.090Z,0.28
2024-02-04T21:26:21.295Z,0.20
2024-02-04T21:28:49.237Z,0.57
2024-02-04T21:31:18.632Z,0.35
2024-02-04T21:33:46.853Z,0.50
2024-02-04T21:36:14.974Z,0.20
2024-02-04T21:38:42.849Z,0.28
2024-02-04T21:41:18.735Z,0.20
2024-02-04T21:43:46.778Z,0.15
2024-02-04T21:46:14.936Z,0.40
2024-02-04T21:48:46.291Z,0.20
2024-02-04T21:51:14.389Z,0.30
2024-02-04T21:53:42.357Z,0.30
2024-02-04T21:56:11.351Z,0.40
2024-02-04T21:58:39.225Z,0.30
2024-02-04T22:01:07.802Z,0.20
2024-02-04T22:03:36.013Z,0.20
2024-02-04T22:06:05.795Z,0.17
2024-02-04T22:08:33.710Z,0.40
2024-02-04T22:11:02.017Z,0.30
2024-02-04T22:13:30.393Z,0.30
2024-02-04T22:15:58.328Z,0.40
2024-02-04T22:18:26.589Z,0.40
2024-02-04T22:20:54.822Z,0.22
2024-02-04T22:23:24.463Z,0.30
2024-02-04T22:25:54.164Z,0.40
2024-02-04T22:28:22.164Z,0.40
2024-02-04T22:30:50.136Z,0.20
2024-02-04T22:33:18.102Z,0.38
2024-02-04T22:35:46.387Z,0.30
2024-02-04T22:38:14.414Z,0.38
2024-02-04T22:40:43.758Z,0.40
2024-02-04T22:43:11.738Z,0.20
2024-02-04T22:45:39.746Z,0.30
2024-02-04T22:48:09.178Z,0.25
2024-02-04T22:50:39.536Z,0.40
2024-02-04T22:53:09.501Z,0.50
2024-02-04T22:55:37.503Z,0.40
2024-02-04T22:58:07.199Z,0.47
2024-02-04T23:00:35.219Z,0.40
2024-02-04T23:03:03.260Z,0.30
2024-02-04T23:05:31.454Z,0.25
2024-02-04T23:08:00.494Z,0.40
2024-02-04T23:10:30.150Z,0.50
2024-02-04T23:12:58.593Z,0.50
2024-02-04T23:15:28.156Z,0.60
2024-02-04T23:17:56.131Z,0.30
2024-02-04T23:20:24.173Z,0.30
2024-02-04T23:22:52.120Z,0.40
2024-02-04T23:25:24.351Z,0.52
2024-02-04T23:27:55.091Z,0.22
2024-02-04T23:30:23.346Z,0.40
2024-02-04T23:32:53.070Z,0.30
2024-02-04T23:35:21.152Z,0.50
2024-02-04T23:37:49.028Z,0.38
2024-02-04T23:40:17.785Z,0.30
2024-02-04T23:42:45.909Z,0.40
2024-02-04T23:45:13.986Z,0.40
2024-02-04T23:47:41.984Z,0.60
2024-02-04T23:50:12.461Z,0.50
2024-02-04T23:52:41.074Z,0.10
2024-02-04T23:55:10.036Z,0.38
2024-02-04T23:57:38.303Z,0.40
